Terminal Aerodrome Forecast
Issued by NWS

Home | Current Version | Previous Version | Text Only | Print | Product List | Glossary On
Versions: 1 2 3 4 5 6 7 8 9 10 11 12 13 14 15 16 17 18
000
FTUS43 KBIS 241135
TAFMOT
TAF
KMOT 241135Z 2412/2512 33009KT 6SM -RA BR OVC004
     FM241500 35010KT P6SM -SHRA OVC008
     FM241900 35010KT P6SM VCSH OVC015
     FM250300 33005KT P6SM OVC020
     FM250600 33005KT P6SM BKN035
     FM250900 33004KT P6SM BKN025=

USA.gov is the U.S. government's official web portal to all federal, state and local government web resources and services.